createdAt,value
2019-04-21T00:01:50.683Z,11.06
2019-04-21T00:04:34.632Z,10.99
2019-04-21T00:07:13.152Z,10.84
2019-04-21T00:09:53.741Z,10.73
2019-04-21T00:12:22.001Z,10.75
2019-04-21T00:14:46.776Z,10.58
2019-04-21T00:17:12.914Z,10.72
2019-04-21T00:19:45.967Z,10.62
2019-04-21T00:22:30.162Z,10.59
2019-04-21T00:25:08.958Z,10.51
2019-04-21T00:27:38.655Z,10.55
2019-04-21T00:30:16.084Z,10.59
2019-04-21T00:32:38.098Z,10.50
2019-04-21T00:35:04.748Z,10.42
2019-04-21T00:37:53.187Z,10.39
2019-04-21T00:40:25.690Z,10.39
2019-04-21T00:42:55.676Z,10.34
2019-04-21T00:45:26.349Z,10.22
2019-04-21T00:48:03.889Z,10.27
2019-04-21T00:50:40.417Z,10.23
2019-04-21T00:53:16.906Z,10.15
2019-04-21T00:55:50.052Z,10.08
2019-04-21T00:58:28.675Z,10.04
2019-04-21T01:00:58.569Z,9.91
2019-04-21T01:03:47.439Z,9.93
2019-04-21T01:06:03.683Z,9.86
2019-04-21T01:08:32.757Z,9.90
2019-04-21T01:11:01.508Z,9.92
2019-04-21T01:13:45.625Z,9.93
2019-04-21T01:16:22.365Z,9.83
2019-04-21T01:18:46.290Z,9.68
2019-04-21T01:20:59.167Z,9.69
2019-04-21T01:23:29.831Z,9.71
2019-04-21T01:26:14.668Z,9.54
2019-04-21T01:28:52.455Z,9.57
2019-04-21T01:31:22.734Z,9.57
2019-04-21T01:33:57.495Z,9.47
2019-04-21T01:36:25.786Z,9.48
2019-04-21T01:39:08.392Z,9.46
2019-04-21T01:41:43.121Z,9.47
2019-04-21T01:44:05.030Z,9.53
2019-04-21T01:46:33.952Z,9.49
2019-04-21T01:49:04.433Z,9.54
2019-04-21T01:51:59.673Z,9.45
2019-04-21T01:54:45.532Z,9.38
2019-04-21T01:57:34.696Z,9.35
2019-04-21T02:00:02.350Z,9.23
2019-04-21T02:02:43.332Z,9.26
2019-04-21T02:05:17.533Z,9.14
2019-04-21T02:07:49.148Z,9.17
2019-04-21T02:10:27.397Z,9.15
2019-04-21T02:12:50.923Z,9.09
2019-04-21T02:15:31.281Z,9.05
2019-04-21T02:17:59.620Z,9.02
2019-04-21T02:20:24.413Z,8.98
2019-04-21T02:25:39.733Z,8.92
2019-04-21T02:28:16.355Z,8.93
2019-04-21T02:31:00.770Z,8.97
2019-04-21T02:36:00.522Z,8.83
2019-04-21T02:38:30.148Z,8.92
2019-04-21T02:43:25.620Z,8.78
2019-04-21T02:46:04.460Z,8.67
2019-04-21T02:48:38.874Z,8.72
2019-04-21T02:51:10.705Z,8.66
2019-04-21T02:56:22.675Z,8.50
2019-04-21T02:59:03.037Z,8.57
2019-04-21T03:04:34.872Z,8.52
2019-04-21T03:09:46.160Z,8.51
2019-04-21T03:22:31.688Z,8.40
2019-04-21T03:27:56.932Z,8.33
2019-04-21T03:33:23.477Z,8.18
2019-04-21T03:38:00.248Z,8.12
2019-04-21T03:40:26.636Z,8.10
2019-04-21T03:42:57.198Z,8.07
2019-04-21T03:45:31.081Z,8.05
2019-04-21T03:48:04.735Z,8.10
2019-04-21T03:50:37.231Z,8.06
2019-04-21T03:53:16.767Z,8.03
2019-04-21T04:01:05.847Z,8.05
2019-04-21T04:06:24.579Z,8.05
2019-04-21T04:14:35.546Z,7.94
2019-04-21T04:19:44.683Z,7.92
2019-04-21T04:22:14.645Z,7.85
2019-04-21T04:24:39.574Z,7.74
2019-04-21T04:27:21.320Z,7.64
2019-04-21T04:29:48.360Z,7.68
2019-04-21T04:32:16.571Z,7.56
2019-04-21T04:34:58.864Z,7.62
2019-04-21T04:40:13.651Z,7.64
2019-04-21T04:43:11.687Z,7.65
2019-04-21T04:50:49.481Z,7.69
2019-04-21T04:53:22.274Z,7.70
2019-04-21T04:56:02.179Z,7.65
2019-04-21T04:58:54.653Z,7.62
2019-04-21T05:01:14.628Z,7.63
2019-04-21T05:19:16.093Z,7.74
2019-04-21T05:21:55.472Z,7.69
2019-04-21T05:24:12.417Z,7.70
2019-04-21T05:26:43.449Z,7.73
2019-04-21T05:29:10.573Z,7.72
2019-04-21T05:32:09.173Z,7.75
2019-04-21T05:34:49.295Z,7.84
2019-04-21T05:37:28.543Z,7.86
2019-04-21T05:40:00.521Z,7.90
2019-04-21T05:42:35.367Z,7.96
2019-04-21T05:45:17.417Z,7.98
2019-04-21T05:48:02.743Z,8.05
2019-04-21T05:50:27.992Z,8.07
2019-04-21T05:52:53.665Z,8.15
2019-04-21T05:55:54.596Z,8.21
2019-04-21T05:58:08.646Z,8.25
2019-04-21T06:01:09.458Z,8.30
2019-04-21T06:03:26.749Z,8.38
2019-04-21T06:08:27.105Z,8.48
2019-04-21T06:11:02.086Z,8.53
2019-04-21T06:13:36.418Z,8.53
2019-04-21T06:16:05.849Z,8.63
2019-04-21T06:18:42.086Z,8.70
2019-04-21T06:23:49.641Z,8.80
2019-04-21T06:26:28.186Z,8.87
2019-04-21T06:29:03.978Z,8.96
2019-04-21T06:33:59.730Z,9.12
2019-04-21T06:37:07.938Z,9.16
2019-04-21T06:39:48.221Z,9.29
2019-04-21T06:42:09.048Z,9.39
2019-04-21T06:44:48.475Z,9.48
2019-04-21T06:47:26.632Z,9.55
2019-04-21T06:49:47.498Z,9.61
2019-04-21T06:52:43.545Z,9.70
2019-04-21T06:54:57.266Z,9.79
2019-04-21T06:57:34.775Z,9.85
2019-04-21T06:59:59.977Z,9.94
2019-04-21T07:03:00.042Z,10.03
2019-04-21T07:05:14.094Z,10.09
2019-04-21T07:07:55.194Z,10.19
2019-04-21T07:10:20.998Z,10.27
2019-04-21T07:12:58.968Z,10.35
2019-04-21T07:15:41.023Z,10.42
2019-04-21T07:18:08.352Z,10.50
2019-04-21T07:20:44.956Z,10.59
2019-04-21T07:23:16.398Z,10.68
2019-04-21T07:25:51.179Z,10.79
2019-04-21T07:28:25.581Z,10.89
2019-04-21T07:31:00.739Z,11.00
2019-04-21T07:33:52.377Z,11.18
2019-04-21T07:35:55.793Z,11.41
2019-04-21T07:38:36.289Z,11.72
2019-04-21T07:41:02.568Z,11.90
2019-04-21T07:43:35.631Z,12.11
2019-04-21T07:46:06.772Z,12.29
2019-04-21T07:48:50.113Z,12.45
2019-04-21T07:51:50.640Z,12.65
2019-04-21T07:54:23.847Z,12.87
2019-04-21T07:56:38.281Z,13.07
2019-04-21T07:59:39.637Z,13.17
2019-04-21T08:02:00.805Z,13.25
2019-04-21T08:07:26.621Z,13.45
2019-04-21T08:09:46.762Z,13.60
2019-04-21T08:12:20.325Z,13.70
2019-04-21T08:15:13.998Z,13.96
2019-04-21T08:17:36.489Z,14.02
2019-04-21T08:20:09.266Z,14.13
2019-04-21T08:22:48.038Z,14.22
2019-04-21T08:25:14.915Z,14.27
2019-04-21T08:27:56.995Z,14.33
2019-04-21T08:30:28.799Z,14.36
2019-04-21T08:36:03.103Z,14.60
2019-04-21T08:38:08.840Z,14.70
2019-04-21T08:40:55.880Z,14.73
2019-04-21T08:43:20.829Z,14.73
2019-04-21T08:45:52.431Z,14.76
2019-04-21T08:48:22.615Z,14.84
2019-04-21T08:51:07.744Z,14.89
2019-04-21T08:53:50.625Z,14.96
2019-04-21T08:56:21.410Z,15.06
2019-04-21T08:59:24.289Z,15.16
2019-04-21T09:02:06.363Z,15.23
2019-04-21T09:04:41.208Z,15.30
2019-04-21T09:07:21.446Z,15.35
2019-04-21T09:09:47.413Z,15.42
2019-04-21T09:12:15.026Z,15.48
2019-04-21T09:14:50.671Z,15.54
2019-04-21T09:17:15.143Z,15.64
2019-04-21T09:22:30.691Z,15.80
2019-04-21T09:25:05.885Z,15.86
2019-04-21T09:27:30.753Z,15.92
2019-04-21T09:29:54.040Z,15.95
2019-04-21T09:32:23.852Z,16.02
2019-04-21T09:34:53.872Z,16.18
2019-04-21T09:37:37.942Z,16.34
2019-04-21T09:39:57.848Z,16.37
2019-04-21T09:42:35.986Z,16.52
2019-04-21T09:45:04.925Z,16.58
2019-04-21T09:47:41.793Z,16.62
2019-04-21T09:50:06.737Z,16.67
2019-04-21T09:52:44.847Z,16.72
2019-04-21T09:55:15.974Z,16.76
2019-04-21T09:57:51.590Z,17.08
2019-04-21T10:00:21.081Z,17.29
2019-04-21T10:02:58.633Z,17.53
2019-04-21T10:05:25.078Z,17.53
2019-04-21T10:07:55.829Z,17.67
2019-04-21T10:10:27.516Z,17.74
2019-04-21T10:12:58.348Z,17.78
2019-04-21T10:15:29.800Z,17.86
2019-04-21T10:18:03.527Z,17.95
2019-04-21T10:20:34.145Z,18.06
2019-04-21T10:23:05.023Z,18.23
2019-04-21T10:25:36.801Z,18.23
2019-04-21T10:28:07.501Z,18.25
2019-04-21T10:30:38.501Z,18.28
2019-04-21T10:33:10.372Z,18.32
2019-04-21T10:35:41.352Z,18.33
2019-04-21T10:38:22.969Z,18.40
2019-04-21T10:40:45.268Z,18.45
2019-04-21T10:43:20.308Z,18.51
2019-04-21T10:45:48.864Z,18.66
2019-04-21T10:48:20.916Z,18.68
2019-04-21T10:50:52.686Z,18.80
2019-04-21T10:53:27.019Z,18.84
2019-04-21T10:56:11.445Z,18.88
2019-04-21T10:58:34.048Z,18.89
2019-04-21T11:01:16.803Z,18.96
2019-04-21T11:04:07.502Z,19.13
2019-04-21T11:06:37.098Z,19.26
2019-04-21T11:09:10.937Z,19.30
2019-04-21T11:11:44.570Z,19.38
2019-04-21T11:14:13.940Z,19.51
2019-04-21T11:16:47.254Z,19.59
2019-04-21T11:19:17.959Z,19.53
2019-04-21T11:21:49.310Z,19.63
2019-04-21T11:24:20.899Z,19.67
2019-04-21T11:26:51.946Z,19.70
2019-04-21T11:29:23.288Z,19.75
2019-04-21T11:31:54.864Z,19.83
2019-04-21T11:34:25.577Z,19.80
2019-04-21T11:36:58.374Z,19.77
2019-04-21T11:39:39.510Z,19.75
2019-04-21T11:42:07.831Z,19.78
2019-04-21T11:44:39.510Z,19.78
2019-04-21T11:47:16.568Z,19.85
2019-04-21T11:49:47.226Z,19.93
2019-04-21T11:52:19.169Z,19.91
2019-04-21T11:54:50.945Z,19.91
2019-04-21T11:57:27.867Z,19.97
2019-04-21T11:59:53.880Z,19.97
2019-04-21T12:02:25.676Z,20.05
2019-04-21T12:04:57.247Z,20.04
2019-04-21T12:07:29.233Z,20.11
2019-04-21T12:09:59.955Z,20.21
2019-04-21T12:12:30.574Z,20.25
2019-04-21T12:15:01.931Z,20.29
2019-04-21T12:17:34.090Z,20.31
2019-04-21T12:20:06.450Z,20.36
2019-04-21T12:22:37.450Z,20.29
2019-04-21T12:25:13.314Z,20.29
2019-04-21T12:27:43.968Z,20.38
2019-04-21T12:30:15.656Z,20.47
2019-04-21T12:32:51.946Z,20.53
2019-04-21T12:35:23.844Z,20.55
2019-04-21T12:37:55.015Z,20.50
2019-04-21T12:40:26.833Z,20.51
2019-04-21T12:42:58.529Z,20.64
2019-04-21T12:45:29.573Z,20.65
2019-04-21T12:48:00.166Z,20.66
2019-04-21T12:50:32.048Z,20.66
2019-04-21T12:53:03.315Z,20.67
2019-04-21T12:55:37.010Z,20.77
2019-04-21T12:58:07.715Z,20.87
2019-04-21T13:00:40.986Z,21.04
2019-04-21T13:03:11.930Z,21.05
2019-04-21T13:05:43.408Z,21.02
2019-04-21T13:08:15.358Z,21.05
2019-04-21T13:10:46.407Z,21.11
2019-04-21T13:13:19.729Z,21.12
2019-04-21T13:15:49.511Z,21.29
2019-04-21T13:18:20.605Z,21.30
2019-04-21T13:20:51.868Z,21.23
2019-04-21T13:23:23.151Z,21.28
2019-04-21T13:25:54.122Z,21.36
2019-04-21T13:28:24.986Z,21.41
2019-04-21T13:30:56.055Z,21.53
2019-04-21T13:33:27.143Z,21.57
2019-04-21T13:35:59.262Z,21.65
2019-04-21T13:38:36.904Z,21.73
2019-04-21T13:41:32.630Z,21.86
2019-04-21T13:44:15.900Z,22.08
2019-04-21T13:46:49.204Z,22.49
2019-04-21T13:49:21.138Z,22.85
2019-04-21T13:51:52.044Z,23.08
2019-04-21T13:54:22.570Z,23.22
2019-04-21T13:56:54.391Z,23.34
2019-04-21T13:59:26.322Z,23.34
2019-04-21T14:01:58.274Z,23.30
2019-04-21T14:04:29.533Z,23.30
2019-04-21T14:07:00.565Z,23.27
2019-04-21T14:09:40.287Z,23.30
2019-04-21T14:12:03.572Z,23.38
2019-04-21T14:14:36.606Z,23.49
2019-04-21T14:17:07.258Z,23.55
2019-04-21T14:19:37.773Z,23.59
2019-04-21T14:22:10.309Z,23.63
2019-04-21T14:24:41.633Z,23.60
2019-04-21T14:27:12.377Z,23.68
2019-04-21T14:29:43.856Z,23.71
2019-04-21T14:32:16.014Z,23.73
2019-04-21T14:34:49.881Z,23.80
2019-04-21T14:37:20.170Z,23.74
2019-04-21T14:39:59.487Z,23.81
2019-04-21T14:42:24.324Z,23.85
2019-04-21T14:44:54.903Z,23.93
2019-04-21T14:47:59.373Z,23.96
2019-04-21T14:50:50.430Z,24.09
2019-04-21T14:53:25.541Z,24.18
2019-04-21T14:55:57.526Z,24.19
2019-04-21T14:58:28.294Z,24.24
2019-04-21T15:01:06.026Z,24.33
2019-04-21T15:03:39.296Z,24.44
2019-04-21T15:06:11.495Z,24.53
2019-04-21T15:08:42.958Z,24.60
2019-04-21T15:11:13.980Z,24.54
2019-04-21T15:13:45.836Z,24.57
2019-04-21T15:16:19.004Z,24.63
2019-04-21T15:18:50.633Z,24.62
2019-04-21T15:21:21.616Z,24.70
2019-04-21T15:23:52.383Z,24.74
2019-04-21T15:26:24.132Z,24.74
2019-04-21T15:28:55.041Z,24.81
2019-04-21T15:31:30.555Z,24.88
2019-04-21T15:33:59.084Z,24.95
2019-04-21T15:36:33.126Z,24.98
2019-04-21T15:39:03.546Z,25.01
2019-04-21T15:41:34.479Z,24.99
2019-04-21T15:44:09.770Z,25.06
2019-04-21T15:46:43.971Z,25.06
2019-04-21T15:49:15.413Z,25.06
2019-04-21T15:51:46.415Z,25.02
2019-04-21T15:54:18.453Z,24.94
2019-04-21T15:56:58.608Z,24.88
2019-04-21T15:59:46.424Z,24.78
2019-04-21T16:02:34.873Z,24.76
2019-04-21T16:05:06.596Z,24.66
2019-04-21T16:07:38.067Z,24.60
2019-04-21T16:10:11.826Z,24.50
2019-04-21T16:12:43.642Z,24.41
2019-04-21T16:15:16.700Z,24.37
2019-04-21T16:17:48.793Z,24.36
2019-04-21T16:20:21.977Z,24.31
2019-04-21T16:22:52.901Z,24.26
2019-04-21T16:25:23.563Z,24.22
2019-04-21T16:27:55.196Z,24.19
2019-04-21T16:30:26.167Z,24.16
2019-04-21T16:32:57.728Z,24.13
2019-04-21T16:35:29.582Z,24.09
2019-04-21T16:38:01.235Z,24.09
2019-04-21T16:40:43.059Z,24.04
2019-04-21T16:43:05.962Z,24.02
2019-04-21T16:45:37.022Z,23.96
2019-04-21T16:48:07.621Z,23.92
2019-04-21T16:50:39.375Z,23.92
2019-04-21T16:53:19.932Z,23.86
2019-04-21T16:55:55.174Z,23.83
2019-04-21T16:59:00.882Z,23.78
2019-04-21T17:01:31.952Z,23.67
2019-04-21T17:04:02.671Z,23.57
2019-04-21T17:06:33.343Z,23.51
2019-04-21T17:09:05.041Z,23.42
2019-04-21T17:11:39.218Z,23.36
2019-04-21T17:14:30.075Z,23.24
2019-04-21T17:17:04.001Z,23.17
2019-04-21T17:19:20.015Z,23.14
2019-04-21T17:21:45.692Z,23.06
2019-04-21T17:24:16.732Z,22.98
2019-04-21T17:26:48.187Z,22.94
2019-04-21T17:29:20.857Z,22.86
2019-04-21T17:31:53.156Z,22.79
2019-04-21T17:34:27.696Z,22.67
2019-04-21T17:36:57.203Z,22.65
2019-04-21T17:39:28.931Z,22.58
2019-04-21T17:42:12.976Z,22.52
2019-04-21T17:44:33.040Z,22.29
2019-04-21T17:47:13.292Z,22.08
2019-04-21T17:49:37.212Z,22.06
2019-04-21T17:52:25.477Z,21.94
2019-04-21T17:55:10.307Z,21.77
2019-04-21T17:57:59.461Z,21.62
2019-04-21T18:00:52.954Z,21.48
2019-04-21T18:02:59.000Z,21.40
2019-04-21T18:05:39.355Z,21.25
2019-04-21T18:08:11.321Z,21.08
2019-04-21T18:10:37.373Z,21.00
2019-04-21T18:13:01.332Z,20.96
2019-04-21T18:15:44.357Z,20.80
2019-04-21T18:17:58.760Z,20.68
2019-04-21T18:20:32.319Z,20.53
2019-04-21T18:23:34.920Z,20.35
2019-04-21T18:26:00.033Z,20.26
2019-04-21T18:28:23.627Z,20.10
2019-04-21T18:31:04.660Z,20.08
2019-04-21T18:33:40.484Z,19.91
2019-04-21T18:36:25.391Z,19.79
2019-04-21T18:39:37.867Z,19.63
2019-04-21T18:42:17.550Z,19.56
2019-04-21T18:48:12.450Z,19.28
2019-04-21T18:50:47.806Z,19.17
2019-04-21T18:53:32.546Z,18.99
2019-04-21T18:55:56.212Z,18.81
2019-04-21T18:58:22.163Z,18.69
2019-04-21T19:01:03.240Z,18.57
2019-04-21T19:03:35.801Z,18.46
2019-04-21T19:06:08.545Z,18.35
2019-04-21T19:08:57.775Z,18.16
2019-04-21T19:11:23.731Z,18.09
2019-04-21T19:14:20.913Z,18.01
2019-04-21T19:19:36.656Z,17.74
2019-04-21T19:21:46.956Z,17.63
2019-04-21T19:24:27.557Z,17.57
2019-04-21T19:31:59.939Z,17.38
2019-04-21T19:34:18.649Z,17.26
2019-04-21T19:36:51.148Z,17.25
2019-04-21T19:39:33.267Z,17.04
2019-04-21T19:42:00.312Z,16.99
2019-04-21T19:44:45.637Z,16.77
2019-04-21T19:47:19.846Z,16.70
2019-04-21T19:49:52.562Z,16.72
2019-04-21T19:52:09.421Z,16.58
2019-04-21T19:54:41.202Z,16.56
2019-04-21T19:57:09.033Z,16.47
2019-04-21T19:59:48.082Z,16.34
2019-04-21T20:02:14.317Z,16.27
2019-04-21T20:04:52.218Z,16.22
2019-04-21T20:07:34.290Z,16.16
2019-04-21T20:10:14.385Z,16.01
2019-04-21T20:12:45.120Z,16.00
2019-04-21T20:15:20.326Z,15.95
2019-04-21T20:17:42.244Z,15.83
2019-04-21T20:20:00.661Z,15.74
2019-04-21T20:22:36.863Z,15.72
2019-04-21T20:25:11.631Z,15.69
2019-04-21T20:27:45.203Z,15.56
2019-04-21T20:30:31.063Z,15.38
2019-04-21T20:33:14.170Z,15.23
2019-04-21T20:35:48.539Z,15.22
2019-04-21T20:38:01.975Z,15.16
2019-04-21T20:40:33.359Z,15.04
2019-04-21T20:43:23.680Z,14.99
2019-04-21T20:45:45.833Z,15.06
2019-04-21T20:48:10.468Z,14.85
2019-04-21T20:50:43.496Z,14.87
2019-04-21T20:53:19.848Z,14.81
2019-04-21T20:55:54.258Z,14.81
2019-04-21T20:58:26.005Z,14.74
2019-04-21T21:03:37.771Z,14.64
2019-04-21T21:05:52.979Z,14.56
2019-04-21T21:08:38.589Z,14.55
2019-04-21T21:11:00.311Z,14.50
2019-04-21T21:13:42.799Z,14.37
2019-04-21T21:16:41.460Z,14.30
2019-04-21T21:21:22.434Z,14.17
2019-04-21T21:23:52.757Z,14.07
2019-04-21T21:26:30.700Z,13.94
2019-04-21T21:28:54.044Z,13.87
2019-04-21T21:31:31.322Z,13.84
2019-04-21T21:34:11.883Z,13.74
2019-04-21T21:36:38.254Z,13.56
2019-04-21T21:39:09.648Z,13.57
2019-04-21T21:41:29.861Z,13.45
2019-04-21T21:44:03.923Z,13.36
2019-04-21T21:46:45.572Z,13.38
2019-04-21T21:49:08.459Z,13.41
2019-04-21T21:51:44.980Z,13.42
2019-04-21T21:54:07.594Z,13.30
2019-04-21T21:56:38.535Z,13.07
2019-04-21T21:59:15.074Z,13.08
2019-04-21T22:01:47.148Z,12.99
2019-04-21T22:04:20.897Z,12.93
2019-04-21T22:06:55.380Z,12.93
2019-04-21T22:09:19.734Z,12.86
2019-04-21T22:11:56.301Z,12.66
2019-04-21T22:14:32.890Z,12.74
2019-04-21T22:19:52.241Z,12.55
2019-04-21T22:22:17.919Z,12.47
2019-04-21T22:24:50.768Z,12.39
2019-04-21T22:27:09.447Z,12.39
2019-04-21T22:29:45.350Z,12.30
2019-04-21T22:32:17.376Z,12.25
2019-04-21T22:34:53.974Z,12.04
2019-04-21T22:37:29.951Z,12.06
2019-04-21T22:40:07.142Z,12.02
2019-04-21T22:42:31.238Z,11.96
2019-04-21T22:44:58.576Z,11.90
2019-04-21T22:47:33.772Z,11.92
2019-04-21T22:50:02.670Z,12.01
2019-04-21T22:52:33.780Z,11.94
2019-04-21T22:55:13.496Z,11.88
2019-04-21T22:57:43.414Z,11.84
2019-04-21T23:00:15.350Z,11.77
2019-04-21T23:02:46.914Z,11.68
2019-04-21T23:05:22.497Z,11.61
2019-04-21T23:07:55.210Z,11.45
2019-04-21T23:10:25.320Z,11.54
2019-04-21T23:12:59.534Z,11.52
2019-04-21T23:15:37.648Z,11.40
2019-04-21T23:18:22.987Z,11.50
2019-04-21T23:20:53.566Z,11.33
2019-04-21T23:23:29.692Z,11.33
2019-04-21T23:25:53.105Z,11.26
2019-04-21T23:28:34.582Z,11.30
2019-04-21T23:31:03.602Z,11.23
2019-04-21T23:33:18.021Z,11.28
2019-04-21T23:35:49.262Z,11.26
2019-04-21T23:38:26.531Z,11.23
2019-04-21T23:40:57.880Z,11.07
2019-04-21T23:43:27.495Z,11.15
2019-04-21T23:45:57.277Z,11.00
2019-04-21T23:48:39.073Z,10.85
2019-04-21T23:51:13.503Z,10.87
2019-04-21T23:53:33.428Z,10.91
2019-04-21T23:56:13.464Z,10.85
2019-04-21T23:58:44.901Z,10.83
